DW4959 Weather Reports


time (UTC)temp
C
wind
direction
speed
KPH
gust
KPH
rain 1hr
cm
rain 24hr
cm
rain mn
cm
humidity
%
barometer
mb
20190523024502 19 295 11.3 19.3 0.00 0.00 0.00 31 1005.5
20190523021730 21 233 19.3 35.4 0.00 0.00 0.00 33 1005.0
20190523020113 21 238 20.9 35.4 0.00 0.00 0.00 33 1004.8
20190523014623 22 267 24.1 35.4 0.00 0.00 0.00 31 1004.6
20190523013128 22 249 24.1 33.8 0.00 0.00 0.00 30 1004.5
20190523011506 22 242 22.5 40.2 0.00 0.00 0.00 29 1004.5
20190523010141 23 236 20.9 33.8 0.00 0.00 0.00 27 1004.4
20190523004619 23 242 20.9 37.0 0.00 0.00 0.00 27 1004.4
20190523003138 23 244 17.7 38.6 0.00 0.00 0.00 26 1004.4
20190523001535 23 267 27.4 43.5 0.00 0.00 0.00 25 1004.4
20190522234549 24 233 19.3 41.8 0.00 0.00 0.00 24 1004.3
20190522233156 24 221 30.6 45.1 0.00 0.00 0.00 24 1004.5
20190522231631 24 230 25.7 45.1 0.00 0.00 0.00 24 1004.4
20190522230037 24 236 25.7 51.5 0.00 0.00 0.00 25 1004.5
20190522224805 25 238 27.4 46.7 0.00 0.00 0.00 26 1004.7
20190522223128 24 226 30.6 48.3 0.00 0.00 0.00 27 1004.6
20190522221546 25 241 20.9 45.1 0.00 0.00 0.00 27 1004.7
20190522214652 25 248 20.9 41.8 0.00 0.00 0.00 27 1004.9
20190522213026 25 258 22.5 40.2 0.00 0.00 0.00 28 1005.0
20190522210117 24 228 24.1 35.4 0.00 0.00 0.00 30 1005.6
20190522204603 24 267 27.4 41.8 0.00 0.00 0.00 29 1005.7
20190522203129 23 215 30.6 51.5 0.00 0.00 0.00 29 1005.8
20190522201622 23 229 27.4 38.6 0.00 0.00 0.00 29 1005.9
20190522200135 23 284 27.4 43.5 0.00 0.00 0.00 27 1006.0
20190522194523 23 258 20.9 43.5 0.00 0.00 0.00 28 1006.3
20190522193115 23 232 22.5 46.7 0.00 0.00 0.00 29 1006.2
20190522191623 22 260 27.4 51.5 0.00 0.00 0.00 28 1006.3
20190522190003 22 221 27.4 54.7 0.00 0.00 0.00 28 1006.3
20190522184632 22 241 22.5 45.1 0.00 0.00 0.00 27 1006.4
20190522183100 22 248 20.9 38.6 0.00 0.00 0.00 28 1006.5
20190522181742 22 205 25.7 41.8 0.00 0.00 0.00 28 1006.7
20190522180044 22 234 20.9 40.2 0.00 0.00 0.00 28 1006.6
20190522174618 21 251 25.7 49.9 0.00 0.00 0.00 28 1006.6
20190522173127 21 223 25.7 41.8 0.00 0.00 0.00 29 1006.5
20190522170035 21 175 19.3 33.8 0.00 0.00 0.00 30 1006.4
20190522164551 21 221 24.1 35.4 0.00 0.00 0.00 30 1006.5
20190522163236 20 250 16.1 35.4 0.00 0.00 0.00 30 1006.3
20190522161638 20 215 19.3 35.4 0.00 0.00 0.00 30 1006.3
20190522160040 20 247 24.1 40.2 0.00 0.00 0.00 27 1006.1
20190522154737 20 183 19.3 30.6 0.00 0.00 0.00 26 1006.1
20190522153015 20 228 14.5 27.4 0.00 0.00 0.00 26 1006.0
20190522151628 18 175 14.5 22.5 0.00 0.00 0.00 27 1005.9
20190522150213 17 217 12.9 24.1 0.00 0.00 0.00 30 1006.1
20190522144513 17 255 16.1 25.7 0.00 0.00 0.00 31 1006.1
20190522143022 17 231 16.1 27.4 0.00 0.00 0.00 31 1006.2
20190522141708 16 252 17.7 27.4 0.00 0.00 0.00 31 1006.3
20190522140200 16 270 12.9 24.1 0.00 0.00 0.00 31 1006.4
20190522134625 15 254 11.3 24.1 0.00 0.00 0.00 31 1006.2
20190522133057 15 246 14.5 24.1 0.00 0.00 0.00 32 1006.0
20190522131511 15 280 8.0 17.7 0.00 0.00 0.00 32 1005.8
20190522130041 14 248 12.9 19.3 0.00 0.00 0.00 32 1005.5
20190522124531 13 267 14.5 19.3 0.00 0.00 0.00 32 1005.3
20190522123145 13 283 4.8 9.7 0.00 0.00 0.00 31 1005.4
20190522121624 13 263 3.2 4.8 0.00 0.00 0.00 30 1005.2
20190522120222 13 263 0.0 0.0 0.00 0.00 0.00 28 1005.4
20190522114552 14 263 1.6 6.4 0.00 0.00 0.00 26 1005.4
20190522113037 14 267 3.2 9.7 0.00 0.00 0.00 26 1005.3
20190522111711 14 266 3.2 11.3 0.00 0.00 0.00 26 1005.5
20190522110052 15 222 0.0 4.8 0.00 0.00 0.00 25 1005.7
20190522104506 15 224 3.2 14.5 0.00 0.00 0.00 25 1005.7
20190522103103 15 236 6.4 16.1 0.00 0.00 0.00 25 1005.7
20190522101507 15 243 6.4 12.9 0.00 0.00 0.00 27 1005.7
20190522100029 15 244 11.3 19.3 0.00 0.00 0.00 26 1005.7
20190522094814 15 245 9.7 16.1 0.00 0.00 0.00 26 1005.9
20190522093141 16 260 8.0 17.7 0.00 0.00 0.00 24 1006.0
20190522091613 16 248 11.3 16.1 0.00 0.00 0.00 23 1006.1
20190522090005 17 259 12.9 20.9 0.00 0.00 0.00 22 1006.2
20190522084740 17 259 9.7 24.1 0.00 0.00 0.00 19 1006.2
20190522083141 17 223 11.3 19.3 0.00 0.00 0.00 17 1006.3
20190522081706 16 227 4.8 14.5 0.00 0.00 0.00 17 1006.3
20190522080044 17 209 8.0 14.5 0.00 0.00 0.00 17 1006.4
20190522074651 17 232 6.4 12.9 0.00 0.00 0.00 19 1006.5
20190522073157 17 253 6.4 17.7 0.00 0.00 0.00 20 1006.7
20190522071553 17 236 9.7 19.3 0.00 0.00 0.00 21 1006.9
20190522070124 17 242 9.7 19.3 0.00 0.00 0.00 21 1006.8
20190522064526 17 266 9.7 17.7 0.00 0.00 0.00 22 1006.8
20190522063133 17 227 6.4 16.1 0.00 0.00 0.00 24 1006.9
20190522061719 17 269 0.0 3.2 0.00 0.00 0.00 26 1007.1
20190522060112 17 270 0.0 0.0 0.00 0.00 0.00 26 1007.1
20190522054608 17 270 3.2 6.4 0.00 0.00 0.00 26 1007.2
20190522053102 18 259 6.4 12.9 0.00 0.00 0.00 24 1007.1
20190522051531 19 223 12.9 27.4 0.00 0.00 0.00 24 1007.2
20190522050111 19 244 12.9 22.5 0.00 0.00 0.00 25 1007.1
20190522044605 19 243 16.1 24.1 0.00 0.00 0.00 25 1006.8
20190522043116 19 259 11.3 25.7 0.00 0.00 0.00 26 1006.6
20190522041543 20 213 12.9 20.9 0.00 0.00 0.00 26 1006.5
20190522040144 19 206 12.9 17.7 0.00 0.00 0.00 24 1006.5
20190522034546 20 265 8.0 12.9 0.00 0.00 0.00 22 1006.5
20190522033150 20 237 6.4 17.7 0.00 0.00 0.00 22 1006.1
20190522031729 20 248 11.3 19.3 0.00 0.00 0.00 22 1005.9